sensor_id;sensor_type;location;lat;lon;timestamp;temperature;humidity
14769;DHT22;7476;49.404;11.152;2023-07-13T00:00:22;20.90;99.90
14769;DHT22;7476;49.404;11.152;2023-07-13T00:02:49;20.90;99.90
14769;DHT22;7476;49.404;11.152;2023-07-13T00:05:19;20.80;99.90
14769;DHT22;7476;49.404;11.152;2023-07-13T00:07:45;20.70;99.90
14769;DHT22;7476;49.404;11.152;2023-07-13T00:10:13;20.70;99.90
14769;DHT22;7476;49.404;11.152;2023-07-13T00:12:42;20.80;99.90
14769;DHT22;7476;49.404;11.152;2023-07-13T00:15:13;20.70;99.90
14769;DHT22;7476;49.404;11.152;2023-07-13T00:17:42;20.60;99.90
14769;DHT22;7476;49.404;11.152;2023-07-13T00:20:10;20.60;99.90
14769;DHT22;7476;49.404;11.152;2023-07-13T00:22:37;20.50;99.90
14769;DHT22;7476;49.404;11.152;2023-07-13T00:25:05;20.50;99.90
14769;DHT22;7476;49.404;11.152;2023-07-13T00:27:31;20.40;99.90
14769;DHT22;7476;49.404;11.152;2023-07-13T00:30:00;20.40;99.90
14769;DHT22;7476;49.404;11.152;2023-07-13T00:32:28;20.40;99.90
14769;DHT22;7476;49.404;11.152;2023-07-13T00:34:55;20.40;99.90
14769;DHT22;7476;49.404;11.152;2023-07-13T00:37:22;20.50;99.90
14769;DHT22;7476;49.404;11.152;2023-07-13T00:39:48;20.60;99.90
14769;DHT22;7476;49.404;11.152;2023-07-13T00:42:15;20.60;99.90
14769;DHT22;7476;49.404;11.152;2023-07-13T00:45:05;20.50;99.90
14769;DHT22;7476;49.404;11.152;2023-07-13T00:47:32;20.50;99.90
14769;DHT22;7476;49.404;11.152;2023-07-13T00:50:00;20.50;99.90
14769;DHT22;7476;49.404;11.152;2023-07-13T00:52:27;20.50;99.90
14769;DHT22;7476;49.404;11.152;2023-07-13T00:54:54;20.50;99.90
14769;DHT22;7476;49.404;11.152;2023-07-13T00:57:22;20.50;99.90
14769;DHT22;7476;49.404;11.152;2023-07-13T00:59:53;20.40;99.90
14769;DHT22;7476;49.404;11.152;2023-07-13T01:02:22;20.40;99.90
14769;DHT22;7476;49.404;11.152;2023-07-13T01:04:50;20.40;99.90
14769;DHT22;7476;49.404;11.152;2023-07-13T01:07:18;20.30;99.90
14769;DHT22;7476;49.404;11.152;2023-07-13T01:09:45;20.30;99.90
14769;DHT22;7476;49.404;11.152;2023-07-13T01:12:12;20.20;99.90
14769;DHT22;7476;49.404;11.152;2023-07-13T01:14:39;20.00;99.90
14769;DHT22;7476;49.404;11.152;2023-07-13T01:17:08;19.90;99.90
14769;DHT22;7476;49.404;11.152;2023-07-13T01:19:42;19.70;99.90
14769;DHT22;7476;49.404;11.152;2023-07-13T01:22:13;19.70;99.90
14769;DHT22;7476;49.404;11.152;2023-07-13T01:24:42;19.50;99.90
14769;DHT22;7476;49.404;11.152;2023-07-13T01:27:11;19.40;99.90
14769;DHT22;7476;49.404;11.152;2023-07-13T01:29:40;19.20;99.90
14769;DHT22;7476;49.404;11.152;2023-07-13T01:32:08;19.10;99.90
14769;DHT22;7476;49.404;11.152;2023-07-13T01:34:35;19.00;99.90
14769;DHT22;7476;49.404;11.152;2023-07-13T01:37:02;18.90;99.90
14769;DHT22;7476;49.404;11.152;2023-07-13T01:39:31;18.90;99.90
14769;DHT22;7476;49.404;11.152;2023-07-13T01:41:58;18.90;99.90
14769;DHT22;7476;49.404;11.152;2023-07-13T01:44:25;18.80;99.90
14769;DHT22;7476;49.404;11.152;2023-07-13T01:46:52;18.70;99.90
14769;DHT22;7476;49.404;11.152;2023-07-13T01:49:19;18.60;99.90
14769;DHT22;7476;49.404;11.152;2023-07-13T01:51:45;18.50;99.90
14769;DHT22;7476;49.404;11.152;2023-07-13T01:54:12;18.40;99.90
14769;DHT22;7476;49.404;11.152;2023-07-13T01:56:40;18.30;99.90
14769;DHT22;7476;49.404;11.152;2023-07-13T01:59:07;18.20;99.90
14769;DHT22;7476;49.404;11.152;2023-07-13T02:01:34;18.10;99.90
14769;DHT22;7476;49.404;11.152;2023-07-13T02:04:01;18.00;99.90
14769;DHT22;7476;49.404;11.152;2023-07-13T02:06:28;18.00;99.90
14769;DHT22;7476;49.404;11.152;2023-07-13T02:08:55;18.00;99.90
14769;DHT22;7476;49.404;11.152;2023-07-13T02:11:21;18.00;99.90
14769;DHT22;7476;49.404;11.152;2023-07-13T02:13:49;18.00;99.90
14769;DHT22;7476;49.404;11.152;2023-07-13T02:16:16;18.00;99.90
14769;DHT22;7476;49.404;11.152;2023-07-13T02:18:43;17.90;99.90
14769;DHT22;7476;49.404;11.152;2023-07-13T02:21:09;17.80;99.90
14769;DHT22;7476;49.404;11.152;2023-07-13T02:23:36;17.70;99.90
14769;DHT22;7476;49.404;11.152;2023-07-13T02:26:04;17.70;99.90
14769;DHT22;7476;49.404;11.152;2023-07-13T02:28:30;17.80;99.90
14769;DHT22;7476;49.404;11.152;2023-07-13T02:31:06;17.80;99.90
14769;DHT22;7476;49.404;11.152;2023-07-13T02:33:33;17.80;99.90
14769;DHT22;7476;49.404;11.152;2023-07-13T02:35:59;17.70;99.90
14769;DHT22;7476;49.404;11.152;2023-07-13T02:38:26;17.60;99.90
14769;DHT22;7476;49.404;11.152;2023-07-13T02:40:52;17.60;99.90
14769;DHT22;7476;49.404;11.152;2023-07-13T02:43:19;17.60;99.90
14769;DHT22;7476;49.404;11.152;2023-07-13T02:45:46;17.60;99.90
14769;DHT22;7476;49.404;11.152;2023-07-13T02:48:14;17.50;99.90
14769;DHT22;7476;49.404;11.152;2023-07-13T02:50:41;17.50;99.90
14769;DHT22;7476;49.404;11.152;2023-07-13T02:53:07;17.50;99.90
14769;DHT22;7476;49.404;11.152;2023-07-13T02:55:34;17.40;99.90
14769;DHT22;7476;49.404;11.152;2023-07-13T02:58:00;17.40;99.90
14769;DHT22;7476;49.404;11.152;2023-07-13T03:00:27;17.30;99.90
14769;DHT22;7476;49.404;11.152;2023-07-13T03:02:54;17.20;99.90
14769;DHT22;7476;49.404;11.152;2023-07-13T03:05:24;17.20;99.90
14769;DHT22;7476;49.404;11.152;2023-07-13T03:07:50;17.00;99.90
14769;DHT22;7476;49.404;11.152;2023-07-13T03:10:17;17.10;99.90
14769;DHT22;7476;49.404;11.152;2023-07-13T03:12:44;17.10;99.90
14769;DHT22;7476;49.404;11.152;2023-07-13T03:15:11;17.10;99.90
14769;DHT22;7476;49.404;11.152;2023-07-13T03:17:37;17.00;99.90
14769;DHT22;7476;49.404;11.152;2023-07-13T03:20:05;17.10;99.90
14769;DHT22;7476;49.404;11.152;2023-07-13T03:22:33;17.10;99.90
14769;DHT22;7476;49.404;11.152;2023-07-13T03:25:00;17.10;99.90
14769;DHT22;7476;49.404;11.152;2023-07-13T03:27:27;17.00;99.90
14769;DHT22;7476;49.404;11.152;2023-07-13T03:29:53;16.90;99.90
14769;DHT22;7476;49.404;11.152;2023-07-13T03:32:20;16.90;99.90
14769;DHT22;7476;49.404;11.152;2023-07-13T03:34:46;16.80;99.90
14769;DHT22;7476;49.404;11.152;2023-07-13T03:37:13;16.80;99.90
14769;DHT22;7476;49.404;11.152;2023-07-13T03:39:41;16.70;99.90
14769;DHT22;7476;49.404;11.152;2023-07-13T03:42:08;16.70;99.90
14769;DHT22;7476;49.404;11.152;2023-07-13T03:44:35;16.80;99.90
14769;DHT22;7476;49.404;11.152;2023-07-13T03:47:01;16.80;99.90
14769;DHT22;7476;49.404;11.152;2023-07-13T03:49:28;16.80;99.90
14769;DHT22;7476;49.404;11.152;2023-07-13T03:51:55;16.80;99.90
14769;DHT22;7476;49.404;11.152;2023-07-13T03:54:22;16.80;99.90
14769;DHT22;7476;49.404;11.152;2023-07-13T03:56:50;16.80;99.90
14769;DHT22;7476;49.404;11.152;2023-07-13T03:59:18;16.70;99.90
14769;DHT22;7476;49.404;11.152;2023-07-13T04:01:45;16.70;99.90
14769;DHT22;7476;49.404;11.152;2023-07-13T04:04:12;16.70;99.90
14769;DHT22;7476;49.404;11.152;2023-07-13T04:06:39;16.50;99.90
14769;DHT22;7476;49.404;11.152;2023-07-13T04:09:05;16.40;99.90
14769;DHT22;7476;49.404;11.152;2023-07-13T04:11:34;16.40;99.90
14769;DHT22;7476;49.404;11.152;2023-07-13T04:14:03;16.50;99.90
14769;DHT22;7476;49.404;11.152;2023-07-13T04:16:30;16.80;99.90
14769;DHT22;7476;49.404;11.152;2023-07-13T04:18:57;17.00;99.90
14769;DHT22;7476;49.404;11.152;2023-07-13T04:21:26;17.10;99.90
14769;DHT22;7476;49.404;11.152;2023-07-13T04:23:53;17.20;99.90
14769;DHT22;7476;49.404;11.152;2023-07-13T04:26:19;17.20;99.90
14769;DHT22;7476;49.404;11.152;2023-07-13T04:28:48;17.30;99.90
14769;DHT22;7476;49.404;11.152;2023-07-13T04:31:16;17.30;99.90
14769;DHT22;7476;49.404;11.152;2023-07-13T04:33:43;17.30;99.90
14769;DHT22;7476;49.404;11.152;2023-07-13T04:36:10;17.40;99.90
14769;DHT22;7476;49.404;11.152;2023-07-13T04:38:37;17.50;99.90
14769;DHT22;7476;49.404;11.152;2023-07-13T04:41:05;17.60;99.90
14769;DHT22;7476;49.404;11.152;2023-07-13T04:43:33;17.60;99.90
14769;DHT22;7476;49.404;11.152;2023-07-13T04:46:04;17.70;99.90
14769;DHT22;7476;49.404;11.152;2023-07-13T04:48:32;17.70;99.90
14769;DHT22;7476;49.404;11.152;2023-07-13T04:50:59;17.70;99.90
14769;DHT22;7476;49.404;11.152;2023-07-13T04:53:27;17.80;99.90
14769;DHT22;7476;49.404;11.152;2023-07-13T04:55:54;18.00;99.90
14769;DHT22;7476;49.404;11.152;2023-07-13T04:58:21;18.40;99.90
14769;DHT22;7476;49.404;11.152;2023-07-13T05:00:48;19.10;99.90
14769;DHT22;7476;49.404;11.152;2023-07-13T05:03:14;19.70;99.90
14769;DHT22;7476;49.404;11.152;2023-07-13T05:05:42;19.80;99.90
14769;DHT22;7476;49.404;11.152;2023-07-13T05:08:09;20.00;99.90
14769;DHT22;7476;49.404;11.152;2023-07-13T05:10:36;20.60;99.90
14769;DHT22;7476;49.404;11.152;2023-07-13T05:13:02;21.00;99.90
14769;DHT22;7476;49.404;11.152;2023-07-13T05:15:29;21.80;99.90
14769;DHT22;7476;49.404;11.152;2023-07-13T05:17:56;22.10;99.90
14769;DHT22;7476;49.404;11.152;2023-07-13T05:20:22;22.50;99.90
14769;DHT22;7476;49.404;11.152;2023-07-13T05:22:50;22.50;99.90
14769;DHT22;7476;49.404;11.152;2023-07-13T05:25:17;22.00;99.90
14769;DHT22;7476;49.404;11.152;2023-07-13T05:27:44;21.60;99.90
14769;DHT22;7476;49.404;11.152;2023-07-13T05:30:12;21.70;99.90
14769;DHT22;7476;49.404;11.152;2023-07-13T05:32:39;21.50;99.90
14769;DHT22;7476;49.404;11.152;2023-07-13T05:35:06;21.50;99.90
14769;DHT22;7476;49.404;11.152;2023-07-13T05:37:33;22.10;99.90
14769;DHT22;7476;49.404;11.152;2023-07-13T05:40:01;22.30;99.90
14769;DHT22;7476;49.404;11.152;2023-07-13T05:42:28;22.70;99.90
14769;DHT22;7476;49.404;11.152;2023-07-13T05:44:57;22.90;99.90
14769;DHT22;7476;49.404;11.152;2023-07-13T05:47:23;23.20;99.90
14769;DHT22;7476;49.404;11.152;2023-07-13T05:49:50;23.00;99.90
14769;DHT22;7476;49.404;11.152;2023-07-13T05:52:16;23.00;99.90
14769;DHT22;7476;49.404;11.152;2023-07-13T05:54:43;23.10;99.90
14769;DHT22;7476;49.404;11.152;2023-07-13T05:57:11;23.30;99.90
14769;DHT22;7476;49.404;11.152;2023-07-13T05:59:37;23.20;99.90
14769;DHT22;7476;49.404;11.152;2023-07-13T06:02:05;22.90;99.90
14769;DHT22;7476;49.404;11.152;2023-07-13T06:04:31;22.60;99.90
14769;DHT22;7476;49.404;11.152;2023-07-13T06:06:58;22.30;99.90
14769;DHT22;7476;49.404;11.152;2023-07-13T06:09:25;22.20;99.90
14769;DHT22;7476;49.404;11.152;2023-07-13T06:11:52;22.00;99.90
14769;DHT22;7476;49.404;11.152;2023-07-13T06:14:20;22.30;99.90
14769;DHT22;7476;49.404;11.152;2023-07-13T06:16:46;22.20;99.90
14769;DHT22;7476;49.404;11.152;2023-07-13T06:19:13;22.10;99.90
14769;DHT22;7476;49.404;11.152;2023-07-13T06:21:40;22.20;99.90
14769;DHT22;7476;49.404;11.152;2023-07-13T06:24:06;22.30;99.90
14769;DHT22;7476;49.404;11.152;2023-07-13T06:26:33;22.70;99.90
14769;DHT22;7476;49.404;11.152;2023-07-13T06:28:59;22.70;99.90
14769;DHT22;7476;49.404;11.152;2023-07-13T06:31:27;22.80;99.90
14769;DHT22;7476;49.404;11.152;2023-07-13T06:33:54;23.00;99.90
14769;DHT22;7476;49.404;11.152;2023-07-13T06:36:21;23.60;99.90
14769;DHT22;7476;49.404;11.152;2023-07-13T06:38:47;23.70;99.90
14769;DHT22;7476;49.404;11.152;2023-07-13T06:41:14;23.40;99.90
14769;DHT22;7476;49.404;11.152;2023-07-13T06:43:41;23.40;99.90
14769;DHT22;7476;49.404;11.152;2023-07-13T06:46:07;23.80;99.90
14769;DHT22;7476;49.404;11.152;2023-07-13T06:48:35;23.50;99.90
14769;DHT22;7476;49.404;11.152;2023-07-13T06:51:03;23.40;99.90
14769;DHT22;7476;49.404;11.152;2023-07-13T06:53:29;23.20;99.90
14769;DHT22;7476;49.404;11.152;2023-07-13T06:55:56;23.30;99.90
14769;DHT22;7476;49.404;11.152;2023-07-13T06:58:23;23.10;99.90
14769;DHT22;7476;49.404;11.152;2023-07-13T07:00:50;22.70;99.90
14769;DHT22;7476;49.404;11.152;2023-07-13T07:03:18;22.00;99.90
14769;DHT22;7476;49.404;11.152;2023-07-13T07:05:46;21.60;99.90
14769;DHT22;7476;49.404;11.152;2023-07-13T07:08:13;21.40;99.90
14769;DHT22;7476;49.404;11.152;2023-07-13T07:10:40;21.40;99.90
14769;DHT22;7476;49.404;11.152;2023-07-13T07:13:07;22.10;99.90
14769;DHT22;7476;49.404;11.152;2023-07-13T07:15:34;23.00;99.90
14769;DHT22;7476;49.404;11.152;2023-07-13T07:18:01;24.20;99.90
14769;DHT22;7476;49.404;11.152;2023-07-13T07:20:27;24.30;99.90
14769;DHT22;7476;49.404;11.152;2023-07-13T07:22:57;24.50;99.90
14769;DHT22;7476;49.404;11.152;2023-07-13T07:25:24;24.40;99.90
14769;DHT22;7476;49.404;11.152;2023-07-13T07:27:50;23.90;99.90
14769;DHT22;7476;49.404;11.152;2023-07-13T07:30:17;24.00;99.90
14769;DHT22;7476;49.404;11.152;2023-07-13T07:32:43;23.90;99.90
14769;DHT22;7476;49.404;11.152;2023-07-13T07:35:10;24.50;99.90
14769;DHT22;7476;49.404;11.152;2023-07-13T07:37:37;25.10;99.90
14769;DHT22;7476;49.404;11.152;2023-07-13T07:40:07;24.80;99.90
14769;DHT22;7476;49.404;11.152;2023-07-13T07:42:34;24.70;99.90
14769;DHT22;7476;49.404;11.152;2023-07-13T07:45:00;25.20;99.90
14769;DHT22;7476;49.404;11.152;2023-07-13T07:47:27;25.30;99.60
14769;DHT22;7476;49.404;11.152;2023-07-13T07:49:54;24.60;99.90
14769;DHT22;7476;49.404;11.152;2023-07-13T07:52:20;24.20;99.90
14769;DHT22;7476;49.404;11.152;2023-07-13T07:54:47;23.90;99.90
14769;DHT22;7476;49.404;11.152;2023-07-13T07:57:15;23.60;99.90
14769;DHT22;7476;49.404;11.152;2023-07-13T07:59:42;23.40;99.90
14769;DHT22;7476;49.404;11.152;2023-07-13T08:02:10;23.70;99.90
14769;DHT22;7476;49.404;11.152;2023-07-13T08:04:37;24.50;99.90
14769;DHT22;7476;49.404;11.152;2023-07-13T08:07:04;24.90;99.90
14769;DHT22;7476;49.404;11.152;2023-07-13T08:09:31;24.80;99.90
14769;DHT22;7476;49.404;11.152;2023-07-13T08:11:57;25.40;99.90
14769;DHT22;7476;49.404;11.152;2023-07-13T08:14:25;25.90;99.30
14769;DHT22;7476;49.404;11.152;2023-07-13T08:16:52;26.60;98.40
14769;DHT22;7476;49.404;11.152;2023-07-13T08:19:19;26.70;97.40
14769;DHT22;7476;49.404;11.152;2023-07-13T08:21:45;26.80;96.60
14769;DHT22;7476;49.404;11.152;2023-07-13T08:24:14;26.50;97.00
14769;DHT22;7476;49.404;11.152;2023-07-13T08:26:41;26.60;96.50
14769;DHT22;7476;49.404;11.152;2023-07-13T08:29:07;26.60;95.80
14769;DHT22;7476;49.404;11.152;2023-07-13T08:31:35;26.60;95.60
14769;DHT22;7476;49.404;11.152;2023-07-13T08:34:02;26.20;94.90
14769;DHT22;7476;49.404;11.152;2023-07-13T08:36:29;26.40;95.10
14769;DHT22;7476;49.404;11.152;2023-07-13T08:38:56;26.10;94.00
14769;DHT22;7476;49.404;11.152;2023-07-13T08:41:22;26.30;92.40
14769;DHT22;7476;49.404;11.152;2023-07-13T08:43:52;25.70;91.60
14769;DHT22;7476;49.404;11.152;2023-07-13T08:46:24;25.80;92.60
14769;DHT22;7476;49.404;11.152;2023-07-13T08:48:56;26.00;91.30
14769;DHT22;7476;49.404;11.152;2023-07-13T08:51:34;25.90;90.40
14769;DHT22;7476;49.404;11.152;2023-07-13T08:54:07;26.30;90.40
14769;DHT22;7476;49.404;11.152;2023-07-13T08:56:35;26.00;89.90
14769;DHT22;7476;49.404;11.152;2023-07-13T08:59:06;26.00;90.70
14769;DHT22;7476;49.404;11.152;2023-07-13T09:01:51;26.20;90.30
14769;DHT22;7476;49.404;11.152;2023-07-13T09:04:25;26.20;90.30
14769;DHT22;7476;49.404;11.152;2023-07-13T09:07:02;26.40;87.80
14769;DHT22;7476;49.404;11.152;2023-07-13T09:09:39;26.60;89.40
14769;DHT22;7476;49.404;11.152;2023-07-13T09:12:15;25.90;90.00
14769;DHT22;7476;49.404;11.152;2023-07-13T09:14:46;25.40;90.10
14769;DHT22;7476;49.404;11.152;2023-07-13T09:17:18;25.20;91.30
14769;DHT22;7476;49.404;11.152;2023-07-13T09:19:51;25.20;90.50
14769;DHT22;7476;49.404;11.152;2023-07-13T09:22:20;24.90;90.10
14769;DHT22;7476;49.404;11.152;2023-07-13T09:24:54;25.20;90.40
14769;DHT22;7476;49.404;11.152;2023-07-13T09:27:26;25.00;90.70
14769;DHT22;7476;49.404;11.152;2023-07-13T09:30:11;25.10;90.20
14769;DHT22;7476;49.404;11.152;2023-07-13T09:32:48;24.30;91.10
14769;DHT22;7476;49.404;11.152;2023-07-13T09:35:21;24.50;91.60
14769;DHT22;7476;49.404;11.152;2023-07-13T09:37:49;24.80;91.30
14769;DHT22;7476;49.404;11.152;2023-07-13T09:40:23;25.10;90.10
14769;DHT22;7476;49.404;11.152;2023-07-13T09:42:52;25.30;90.70
14769;DHT22;7476;49.404;11.152;2023-07-13T09:45:27;25.80;90.10
14769;DHT22;7476;49.404;11.152;2023-07-13T09:48:00;26.00;90.30
14769;DHT22;7476;49.404;11.152;2023-07-13T09:50:31;26.30;89.60
14769;DHT22;7476;49.404;11.152;2023-07-13T09:52:58;26.10;89.90
14769;DHT22;7476;49.404;11.152;2023-07-13T09:55:28;26.70;86.60
14769;DHT22;7476;49.404;11.152;2023-07-13T09:57:55;26.90;87.00
14769;DHT22;7476;49.404;11.152;2023-07-13T10:00:25;27.00;86.60
14769;DHT22;7476;49.404;11.152;2023-07-13T10:03:00;27.00;86.60
14769;DHT22;7476;49.404;11.152;2023-07-13T10:05:39;26.20;88.30
14769;DHT22;7476;49.404;11.152;2023-07-13T10:08:05;26.70;85.30
14769;DHT22;7476;49.404;11.152;2023-07-13T10:10:33;26.90;82.80
14769;DHT22;7476;49.404;11.152;2023-07-13T10:13:01;27.10;83.30
14769;DHT22;7476;49.404;11.152;2023-07-13T10:15:30;27.10;81.30
14769;DHT22;7476;49.404;11.152;2023-07-13T10:17:56;27.20;81.70
14769;DHT22;7476;49.404;11.152;2023-07-13T10:20:25;26.80;81.60
14769;DHT22;7476;49.404;11.152;2023-07-13T10:22:57;26.70;82.70
14769;DHT22;7476;49.404;11.152;2023-07-13T10:25:31;26.20;83.50
14769;DHT22;7476;49.404;11.152;2023-07-13T10:28:03;26.60;82.00
14769;DHT22;7476;49.404;11.152;2023-07-13T10:30:35;27.20;81.30
14769;DHT22;7476;49.404;11.152;2023-07-13T10:33:12;27.40;82.60
14769;DHT22;7476;49.404;11.152;2023-07-13T10:35:43;27.60;81.60
14769;DHT22;7476;49.404;11.152;2023-07-13T10:38:14;27.60;80.50
14769;DHT22;7476;49.404;11.152;2023-07-13T10:40:56;27.10;80.90
14769;DHT22;7476;49.404;11.152;2023-07-13T10:43:27;27.10;81.20
14769;DHT22;7476;49.404;11.152;2023-07-13T10:45:55;27.40;82.60
14769;DHT22;7476;49.404;11.152;2023-07-13T10:48:22;27.80;80.40
14769;DHT22;7476;49.404;11.152;2023-07-13T10:50:52;27.70;80.20
14769;DHT22;7476;49.404;11.152;2023-07-13T10:53:27;27.90;78.80
14769;DHT22;7476;49.404;11.152;2023-07-13T10:55:58;27.70;79.90
14769;DHT22;7476;49.404;11.152;2023-07-13T10:58:31;27.50;80.40
14769;DHT22;7476;49.404;11.152;2023-07-13T11:01:06;27.80;79.60
14769;DHT22;7476;49.404;11.152;2023-07-13T11:03:35;28.30;77.80
14769;DHT22;7476;49.404;11.152;2023-07-13T11:06:09;28.00;78.30
14769;DHT22;7476;49.404;11.152;2023-07-13T11:08:51;27.10;79.30
14769;DHT22;7476;49.404;11.152;2023-07-13T11:11:36;27.70;80.50
14769;DHT22;7476;49.404;11.152;2023-07-13T11:14:04;27.50;79.10
14769;DHT22;7476;49.404;11.152;2023-07-13T11:16:42;27.80;80.00
14769;DHT22;7476;49.404;11.152;2023-07-13T11:22:22;27.90;78.30
14769;DHT22;7476;49.404;11.152;2023-07-13T11:24:59;28.40;78.80
14769;DHT22;7476;49.404;11.152;2023-07-13T11:27:50;29.10;75.90
14769;DHT22;7476;49.404;11.152;2023-07-13T11:30:30;29.00;76.00
14769;DHT22;7476;49.404;11.152;2023-07-13T11:33:13;29.40;75.60
14769;DHT22;7476;49.404;11.152;2023-07-13T11:35:50;30.30;73.50
14769;DHT22;7476;49.404;11.152;2023-07-13T11:38:20;29.90;72.80
14769;DHT22;7476;49.404;11.152;2023-07-13T11:40:51;29.10;74.60
14769;DHT22;7476;49.404;11.152;2023-07-13T11:43:20;29.20;75.90
14769;DHT22;7476;49.404;11.152;2023-07-13T11:45:49;29.50;74.00
14769;DHT22;7476;49.404;11.152;2023-07-13T11:48:20;29.90;71.70
14769;DHT22;7476;49.404;11.152;2023-07-13T11:50:53;31.00;69.80
14769;DHT22;7476;49.404;11.152;2023-07-13T11:53:21;32.00;67.80
14769;DHT22;7476;49.404;11.152;2023-07-13T11:55:49;31.00;68.10
14769;DHT22;7476;49.404;11.152;2023-07-13T11:58:20;29.50;71.90
14769;DHT22;7476;49.404;11.152;2023-07-13T12:00:49;28.30;72.70
14769;DHT22;7476;49.404;11.152;2023-07-13T12:03:20;28.30;73.90
14769;DHT22;7476;49.404;11.152;2023-07-13T12:05:56;29.10;72.10
14769;DHT22;7476;49.404;11.152;2023-07-13T12:08:24;29.90;69.80
14769;DHT22;7476;49.404;11.152;2023-07-13T12:10:59;30.50;68.40
14769;DHT22;7476;49.404;11.152;2023-07-13T12:13:27;31.60;67.40
14769;DHT22;7476;49.404;11.152;2023-07-13T12:15:54;32.00;64.30
14769;DHT22;7476;49.404;11.152;2023-07-13T12:18:23;31.40;66.20
14769;DHT22;7476;49.404;11.152;2023-07-13T12:20:56;30.90;66.20
14769;DHT22;7476;49.404;11.152;2023-07-13T12:23:25;30.50;66.80
14769;DHT22;7476;49.404;11.152;2023-07-13T12:25:54;29.60;68.40
14769;DHT22;7476;49.404;11.152;2023-07-13T12:28:29;29.60;70.10
14769;DHT22;7476;49.404;11.152;2023-07-13T12:30:58;28.80;69.90
14769;DHT22;7476;49.404;11.152;2023-07-13T12:33:28;28.30;71.40
14769;DHT22;7476;49.404;11.152;2023-07-13T12:35:55;28.50;71.70
14769;DHT22;7476;49.404;11.152;2023-07-13T12:38:24;28.20;72.10
14769;DHT22;7476;49.404;11.152;2023-07-13T12:40:52;28.40;71.70
14769;DHT22;7476;49.404;11.152;2023-07-13T12:43:20;28.70;73.50
14769;DHT22;7476;49.404;11.152;2023-07-13T12:46:01;29.50;71.70
14769;DHT22;7476;49.404;11.152;2023-07-13T12:48:28;29.70;70.70
14769;DHT22;7476;49.404;11.152;2023-07-13T12:50:55;30.50;68.90
14769;DHT22;7476;49.404;11.152;2023-07-13T12:53:24;30.20;66.60
14769;DHT22;7476;49.404;11.152;2023-07-13T12:55:57;29.90;67.70
14769;DHT22;7476;49.404;11.152;2023-07-13T12:58:26;30.60;68.30
14769;DHT22;7476;49.404;11.152;2023-07-13T13:00:55;31.20;67.40
14769;DHT22;7476;49.404;11.152;2023-07-13T13:03:29;32.40;65.40
14769;DHT22;7476;49.404;11.152;2023-07-13T13:06:00;32.10;64.60
14769;DHT22;7476;49.404;11.152;2023-07-13T13:08:28;31.50;65.30
14769;DHT22;7476;49.404;11.152;2023-07-13T13:10:55;30.80;65.00
14769;DHT22;7476;49.404;11.152;2023-07-13T13:13:22;30.50;66.50
14769;DHT22;7476;49.404;11.152;2023-07-13T13:15:50;31.10;66.60
14769;DHT22;7476;49.404;11.152;2023-07-13T13:18:19;31.30;66.30
14769;DHT22;7476;49.404;11.152;2023-07-13T13:20:48;31.30;66.80
14769;DHT22;7476;49.404;11.152;2023-07-13T13:23:17;32.50;64.30
14769;DHT22;7476;49.404;11.152;2023-07-13T13:25:45;32.50;61.90
14769;DHT22;7476;49.404;11.152;2023-07-13T13:28:14;31.60;64.60
14769;DHT22;7476;49.404;11.152;2023-07-13T13:30:42;31.20;64.30
14769;DHT22;7476;49.404;11.152;2023-07-13T13:33:11;31.50;65.90
14769;DHT22;7476;49.404;11.152;2023-07-13T13:35:40;31.90;65.30
14769;DHT22;7476;49.404;11.152;2023-07-13T13:38:12;31.80;64.50
14769;DHT22;7476;49.404;11.152;2023-07-13T13:40:40;32.70;63.40
14769;DHT22;7476;49.404;11.152;2023-07-13T13:43:14;31.70;64.00
14769;DHT22;7476;49.404;11.152;2023-07-13T13:45:42;30.90;65.10
14769;DHT22;7476;49.404;11.152;2023-07-13T13:48:14;30.40;66.50
14769;DHT22;7476;49.404;11.152;2023-07-13T13:50:41;31.00;65.70
14769;DHT22;7476;49.404;11.152;2023-07-13T13:53:11;31.30;65.00
14769;DHT22;7476;49.404;11.152;2023-07-13T13:55:39;31.30;65.40
14769;DHT22;7476;49.404;11.152;2023-07-13T13:58:07;31.20;66.60
14769;DHT22;7476;49.404;11.152;2023-07-13T14:00:34;30.90;64.70
14769;DHT22;7476;49.404;11.152;2023-07-13T14:03:01;30.10;66.60
14769;DHT22;7476;49.404;11.152;2023-07-13T14:05:28;30.50;66.40
14769;DHT22;7476;49.404;11.152;2023-07-13T14:07:55;31.10;65.40
14769;DHT22;7476;49.404;11.152;2023-07-13T14:10:25;30.00;66.50
14769;DHT22;7476;49.404;11.152;2023-07-13T14:12:54;29.40;67.50
14769;DHT22;7476;49.404;11.152;2023-07-13T14:15:23;28.70;69.30
14769;DHT22;7476;49.404;11.152;2023-07-13T14:17:51;28.20;70.40
14769;DHT22;7476;49.404;11.152;2023-07-13T14:20:19;28.00;70.50
14769;DHT22;7476;49.404;11.152;2023-07-13T14:22:46;27.80;69.80
14769;DHT22;7476;49.404;11.152;2023-07-13T14:25:15;27.40;71.60
14769;DHT22;7476;49.404;11.152;2023-07-13T14:27:45;27.40;71.20
14769;DHT22;7476;49.404;11.152;2023-07-13T14:30:13;27.10;72.10
14769;DHT22;7476;49.404;11.152;2023-07-13T14:32:41;27.60;71.90
14769;DHT22;7476;49.404;11.152;2023-07-13T14:35:10;27.90;71.60
14769;DHT22;7476;49.404;11.152;2023-07-13T14:37:37;27.80;71.30
14769;DHT22;7476;49.404;11.152;2023-07-13T14:40:12;27.70;71.80
14769;DHT22;7476;49.404;11.152;2023-07-13T14:42:39;27.10;72.30
14769;DHT22;7476;49.404;11.152;2023-07-13T14:45:12;27.00;72.10
14769;DHT22;7476;49.404;11.152;2023-07-13T14:47:39;26.90;73.00
14769;DHT22;7476;49.404;11.152;2023-07-13T14:50:12;27.60;71.70
14769;DHT22;7476;49.404;11.152;2023-07-13T14:52:40;28.80;70.00
14769;DHT22;7476;49.404;11.152;2023-07-13T14:55:10;29.20;68.20
14769;DHT22;7476;49.404;11.152;2023-07-13T14:57:36;29.90;68.30
14769;DHT22;7476;49.404;11.152;2023-07-13T15:00:04;30.80;65.80
14769;DHT22;7476;49.404;11.152;2023-07-13T15:02:36;31.20;64.50
14769;DHT22;7476;49.404;11.152;2023-07-13T15:05:11;30.70;65.30
14769;DHT22;7476;49.404;11.152;2023-07-13T15:07:38;30.80;63.20
14769;DHT22;7476;49.404;11.152;2023-07-13T15:10:13;31.20;64.10
14769;DHT22;7476;49.404;11.152;2023-07-13T15:12:40;31.60;63.10
14769;DHT22;7476;49.404;11.152;2023-07-13T15:15:07;32.90;61.00
14769;DHT22;7476;49.404;11.152;2023-07-13T15:17:37;33.30;59.20
14769;DHT22;7476;49.404;11.152;2023-07-13T15:20:11;32.60;58.70
14769;DHT22;7476;49.404;11.152;2023-07-13T15:22:39;32.50;59.30
14769;DHT22;7476;49.404;11.152;2023-07-13T15:25:13;32.20;59.20
14769;DHT22;7476;49.404;11.152;2023-07-13T15:27:40;32.00;59.60
14769;DHT22;7476;49.404;11.152;2023-07-13T15:30:08;31.60;59.90
14769;DHT22;7476;49.404;11.152;2023-07-13T15:32:36;31.30;59.40
14769;DHT22;7476;49.404;11.152;2023-07-13T15:35:03;30.60;60.60
14769;DHT22;7476;49.404;11.152;2023-07-13T15:37:29;31.00;60.20
14769;DHT22;7476;49.404;11.152;2023-07-13T15:39:56;31.20;59.70
14769;DHT22;7476;49.404;11.152;2023-07-13T15:42:23;32.00;59.40